Observation data for Post on 02/14/2020      Previous  Date  Next       Current Mesonet Observations  Soil Data  Daily Summary Page  Observations in Plain Language
KPT1 140600Z 10004KT M03/M03 A3032 RMK A01 T10271029  RH  099%=      5-min Rain = 0
KPT1 140605Z 09004KT M03/M03 A3032 RMK A01 T10281029  RH  100%=      5-min Rain = 0
KPT1 140610Z 09004KT M03/M03 A3032 RMK A01 T10281030  RH  100%=      5-min Rain = 0
KPT1 140615Z 09004KT M03/M03 A3032 RMK A01 T10291031  RH  100%=      5-min Rain = 0
KPT1 140620Z 09004KT M03/M03 A3032 RMK A01 T10301031  RH  100%=      5-min Rain = 0
KPT1 140625Z 10005KT M03/M03 A3032 RMK A01 T10301031  RH  100%=      5-min Rain = 0
KPT1 140630Z 10004KT M03/M03 A3032 RMK A01 T10311032  RH  099%=      5-min Rain = 0
KPT1 140635Z 09004KT M03/M03 A3032 RMK A01 T10321034  RH  099%=      5-min Rain = 0
KPT1 140640Z 10004KT M03/M03 A3032 RMK A01 T10321034  RH  099%=      5-min Rain = 0
KPT1 140645Z 10004KT M03/M04 A3032 RMK A01 T10321035  RH  099%=      5-min Rain = 0
KPT1 140650Z 08003KT M03/M04 A3032 RMK A01 T10331036  RH  098%=      5-min Rain = 0
KPT1 140655Z 10003KT M03/M04 A3032 RMK A01 T10331037  RH  098%=      5-min Rain = 0
KPT1 140700Z 09003KT M03/M04 A3032 RMK A01 T10331037  RH  098%=      5-min Rain = 0
KPT1 140705Z 10004KT M03/M04 A3032 RMK A01 T10341038  RH  098%=      5-min Rain = 0
KPT1 140710Z 10004KT M03/M04 A3032 RMK A01 T10341038  RH  097%=      5-min Rain = 0
KPT1 140715Z 09003KT M04/M04 A3032 RMK A01 T10351039  RH  097%=      5-min Rain = 0
KPT1 140720Z 10004KT M03/M04 A3032 RMK A01 T10341039  RH  097%=      5-min Rain = 0
KPT1 140725Z 10005KT M03/M04 A3033 RMK A01 T10341039  RH  097%=      5-min Rain = 0
KPT1 140730Z 10005KT M03/M04 A3033 RMK A01 T10341040  RH  097%=      5-min Rain = 0
KPT1 140735Z 10005KT M04/M04 A3033 RMK A01 T10351040  RH  097%=      5-min Rain = 0
KPT1 140740Z 10005KT M03/M04 A3033 RMK A01 T10341040  RH  096%=      5-min Rain = 0
KPT1 140745Z 10006KT M03/M04 A3032 RMK A01 T10341040  RH  096%=      5-min Rain = 0
KPT1 140750Z 11006KT M03/M04 A3032 RMK A01 T10341041  RH  096%=      5-min Rain = 0
KPT1 140755Z 10005KT M04/M04 A3033 RMK A01 T10351042  RH  095%=      5-min Rain = 0
KPT1 140800Z 10005KT M04/M04 A3033 RMK A01 T10351043  RH  095%=      5-min Rain = 0
KPT1 140805Z 10005KT M04/M04 A3033 RMK A01 T10361044  RH  095%=      5-min Rain = 0
KPT1 140810Z 10005KT M04/M04 A3033 RMK A01 T10371044  RH  095%=      5-min Rain = 0
KPT1 140815Z 10004KT M04/M04 A3033 RMK A01 T10371044  RH  095%=      5-min Rain = 0
KPT1 140820Z 10004KT M04/M05 A3033 RMK A01 T10381045  RH  095%=      5-min Rain = 0
KPT1 140825Z 10005KT M04/M05 A3033 RMK A01 T10391046  RH  095%=      5-min Rain = 0
KPT1 140830Z 11005KT M04/M05 A3033 RMK A01 T10401047  RH  095%=      5-min Rain = 0
KPT1 140835Z 11005KT M04/M05 A3033 RMK A01 T10391047  RH  095%=      5-min Rain = 0
KPT1 140840Z 10005KT M04/M05 A3033 RMK A01 T10401047  RH  095%=      5-min Rain = 0
KPT1 140845Z 10005KT M04/M05 A3033 RMK A01 T10401048  RH  094%=      5-min Rain = 0
KPT1 140850Z 09004KT M04/M05 A3033 RMK A01 T10401049  RH  094%=      5-min Rain = 0
KPT1 140855Z 08004KT M04/M05 A3033 RMK A01 T10411050  RH  094%=      5-min Rain = 0
KPT1 140900Z 07003KT M04/M05 A3033 RMK A01 T10441053  RH  094%=      5-min Rain = 0
KPT1 140905Z 05003KT M05/M05 A3033 RMK A01 T10461053  RH  095%=      5-min Rain = 0
KPT1 140910Z 04002KT M05/M05 A3033 RMK A01 T10461052  RH  096%=      5-min Rain = 0
KPT1 140915Z 06002KT M05/M05 A3033 RMK A01 T10451050  RH  096%=      5-min Rain = 0
KPT1 140920Z 09002KT M04/M05 A3033 RMK A01 T10441049  RH  097%=      5-min Rain = 0
KPT1 140925Z 09003KT M04/M05 A3033 RMK A01 T10441048  RH  097%=      5-min Rain = 0
KPT1 140930Z 07002KT M04/M05 A3033 RMK A01 T10441049  RH  097%=      5-min Rain = 0
KPT1 140935Z 07002KT M05/M05 A3033 RMK A01 T10451050  RH  097%=      5-min Rain = 0
KPT1 140940Z 07002KT M05/M05 A3033 RMK A01 T10451049  RH  097%=      5-min Rain = 0
KPT1 140945Z 06003KT M05/M05 A3033 RMK A01 T10461050  RH  098%=      5-min Rain = 0
KPT1 140950Z 05003KT M05/M05 A3033 RMK A01 T10481052  RH  097%=      5-min Rain = 0
KPT1 140955Z 04003KT M05/M05 A3033 RMK A01 T10481052  RH  098%=      5-min Rain = 0
KPT1 141000Z 04003KT M05/M05 A3033 RMK A01 T10481051  RH  098%=      5-min Rain = 0
KPT1 141005Z 04003KT M05/M05 A3033 RMK A01 T10481051  RH  098%=      5-min Rain = 0
KPT1 141010Z 03003KT M05/M05 A3033 RMK A01 T10501053  RH  098%=      5-min Rain = 0
KPT1 141015Z 03003KT M05/M05 A3033 RMK A01 T10511054  RH  098%=      5-min Rain = 0
KPT1 141020Z 04004KT M05/M06 A3033 RMK A01 T10521055  RH  098%=      5-min Rain = 0
KPT1 141025Z 04004KT M05/M06 A3033 RMK A01 T10531056  RH  098%=      5-min Rain = 0
KPT1 141030Z 04005KT M05/M06 A3033 RMK A01 T10521055  RH  098%=      5-min Rain = 0
KPT1 141035Z 04004KT M05/M06 A3033 RMK A01 T10521056  RH  098%=      5-min Rain = 0
KPT1 141040Z 04004KT M05/M06 A3033 RMK A01 T10531057  RH  098%=      5-min Rain = 0
KPT1 141045Z 04004KT M05/M06 A3033 RMK A01 T10531057  RH  097%=      5-min Rain = 0
KPT1 141050Z 04004KT M05/M06 A3033 RMK A01 T10511055  RH  098%=      5-min Rain = 0
KPT1 141055Z 04003KT M05/M06 A3033 RMK A01 T10521055  RH  097%=      5-min Rain = 0
KPT1 141100Z 04003KT M05/M05 A3033 RMK A01 T10501054  RH  097%=      5-min Rain = 0
KPT1 141105Z 05004KT M05/M05 A3033 RMK A01 T10481052  RH  098%=      5-min Rain = 0
KPT1 141110Z 05004KT M05/M05 A3034 RMK A01 T10501054  RH  097%=      5-min Rain = 0
KPT1 141115Z 04004KT M05/M06 A3034 RMK A01 T10501055  RH  097%=      5-min Rain = 0
KPT1 141120Z 04004KT M05/M06 A3033 RMK A01 T10501055  RH  097%=      5-min Rain = 0
KPT1 141125Z 04004KT M05/M06 A3034 RMK A01 T10501055  RH  096%=      5-min Rain = 0
KPT1 141130Z 04004KT M05/M06 A3034 RMK A01 T10511056  RH  096%=      5-min Rain = 0
KPT1 141135Z 04004KT M05/M06 A3033 RMK A01 T10511057  RH  096%=      5-min Rain = 0
KPT1 141140Z 04003KT M05/M06 A3033 RMK A01 T10521058  RH  095%=      5-min Rain = 0
KPT1 141145Z 03003KT M05/M06 A3033 RMK A01 T10531060  RH  095%=      5-min Rain = 0
KPT1 141150Z 03003KT M05/M06 A3034 RMK A01 T10531060  RH  095%=      5-min Rain = 0
KPT1 141155Z 04003KT M05/M06 A3034 RMK A01 T10521059  RH  095%=      5-min Rain = 0
KPT1 141200Z 04003KT M05/M06 A3034 RMK A01 T10521059  RH  095%=      5-min Rain = 0
KPT1 141205Z 04003KT M05/M06 A3034 RMK A01 T10511059  RH  094%=      5-min Rain = 0
KPT1 141210Z 05003KT M05/M06 A3034 RMK A01 T10511059  RH  094%=      5-min Rain = 0
KPT1 141215Z 05003KT M05/M06 A3034 RMK A01 T10511060  RH  093%=      5-min Rain = 0
KPT1 141220Z 04002KT M05/M06 A3034 RMK A01 T10501060  RH  093%=      5-min Rain = 0
KPT1 141225Z 05002KT M05/M06 A3034 RMK A01 T10501061  RH  093%=      5-min Rain = 0
KPT1 141230Z 06002KT M05/M06 A3034 RMK A01 T10501061  RH  092%=      5-min Rain = 0
KPT1 141235Z 05002KT M05/M06 A3034 RMK A01 T10501062  RH  091%=      5-min Rain = 0
KPT1 141240Z 06003KT M05/M06 A3035 RMK A01 T10501062  RH  092%=      5-min Rain = 0
KPT1 141245Z 05003KT M05/M06 A3035 RMK A01 T10501062  RH  091%=      5-min Rain = 0
KPT1 141250Z 05003KT M05/M06 A3035 RMK A01 T10501063  RH  091%=      5-min Rain = 0
KPT1 141255Z 06003KT M05/M06 A3035 RMK A01 T10501063  RH  091%=      5-min Rain = 0
KPT1 141300Z 07003KT M05/M06 A3035 RMK A01 T10501062  RH  091%=      5-min Rain = 0
KPT1 141305Z 06004KT M05/M06 A3035 RMK A01 T10501062  RH  091%=      5-min Rain = 0
KPT1 141310Z 05003KT M05/M06 A3035 RMK A01 T10501062  RH  091%=      5-min Rain = 0
KPT1 141315Z 05003KT M05/M06 A3035 RMK A01 T10511063  RH  091%=      5-min Rain = 0
KPT1 141320Z 05003KT M05/M06 A3035 RMK A01 T10511064  RH  091%=      5-min Rain = 0
KPT1 141325Z 06002KT M05/M06 A3035 RMK A01 T10511063  RH  091%=      5-min Rain = 0
KPT1 141330Z 07003KT M05/M06 A3035 RMK A01 T10501062  RH  091%=      5-min Rain = 0
KPT1 141335Z 06003KT M05/M06 A3036 RMK A01 T10491061  RH  091%=      5-min Rain = 0
KPT1 141340Z 07003KT M05/M06 A3036 RMK A01 T10491061  RH  091%=      5-min Rain = 0
KPT1 141345Z 07002KT M05/M06 A3036 RMK A01 T10491061  RH  091%=      5-min Rain = 0
KPT1 141350Z 07003KT M05/M06 A3036 RMK A01 T10491061  RH  091%=      5-min Rain = 0
KPT1 141355Z 05003KT M05/M06 A3036 RMK A01 T10491062  RH  091%=      5-min Rain = 0
KPT1 141400Z 07002KT M05/M06 A3036 RMK A01 T10491061  RH  091%=      5-min Rain = 0
KPT1 141405Z 08002KT M05/M06 A3036 RMK A01 T10481061  RH  091%=      5-min Rain = 0
KPT1 141410Z 08002KT M05/M06 A3036 RMK A01 T10471060  RH  091%=      5-min Rain = 0
KPT1 141415Z 09003KT M05/M06 A3036 RMK A01 T10461059  RH  091%=      5-min Rain = 0
KPT1 141420Z 09004KT M05/M06 A3036 RMK A01 T10461059  RH  090%=      5-min Rain = 0
KPT1 141425Z 09004KT M05/M06 A3036 RMK A01 T10461062  RH  088%=      5-min Rain = 0
KPT1 141430Z 10004KT M05/M06 A3036 RMK A01 T10461063  RH  088%=      5-min Rain = 0
KPT1 141435Z 09003KT M05/M06 A3036 RMK A01 T10451061  RH  088%=      5-min Rain = 0
KPT1 141440Z 08003KT M04/M06 A3036 RMK A01 T10441061  RH  088%=      5-min Rain = 0
KPT1 141445Z 09002KT M04/M06 A3036 RMK A01 T10431059  RH  089%=      5-min Rain = 0
KPT1 141450Z 07003KT M04/M06 A3036 RMK A01 T10441060  RH  088%=      5-min Rain = 0
KPT1 141455Z 07003KT M04/M06 A3037 RMK A01 T10431059  RH  089%=      5-min Rain = 0
KPT1 141500Z 08003KT M04/M06 A3037 RMK A01 T10441062  RH  087%=      5-min Rain = 0
KPT1 141505Z 09004KT M04/M06 A3037 RMK A01 T10431062  RH  087%=      5-min Rain = 0
KPT1 141510Z 07003KT M04/M06 A3037 RMK A01 T10421060  RH  088%=      5-min Rain = 0
KPT1 141515Z 07003KT M04/M06 A3037 RMK A01 T10431061  RH  087%=      5-min Rain = 0
KPT1 141520Z 07003KT M04/M06 A3037 RMK A01 T10421060  RH  087%=      5-min Rain = 0
KPT1 141525Z 08003KT M04/M06 A3037 RMK A01 T10421060  RH  087%=      5-min Rain = 0
KPT1 141530Z 07004KT M04/M06 A3037 RMK A01 T10421060  RH  087%=      5-min Rain = 0
KPT1 141535Z 07004KT M04/M06 A3037 RMK A01 T10401057  RH  088%=      5-min Rain = 0
KPT1 141540Z 07004KT M04/M06 A3037 RMK A01 T10391057  RH  088%=      5-min Rain = 0
KPT1 141545Z 07004KT M04/M06 A3037 RMK A01 T10381056  RH  088%=      5-min Rain = 0
KPT1 141550Z 07004KT M04/M06 A3037 RMK A01 T10371055  RH  088%=      5-min Rain = 0
KPT1 141555Z 08004KT M04/M06 A3037 RMK A01 T10381056  RH  087%=      5-min Rain = 0
KPT1 141600Z 08004KT M04/M06 A3037 RMK A01 T10371055  RH  087%=      5-min Rain = 0
KPT1 141605Z 07004KT M04/M05 A3036 RMK A01 T10351053  RH  088%=      5-min Rain = 0
KPT1 141610Z 10003KT M03/M05 A3036 RMK A01 T10331050  RH  088%=      5-min Rain = 0
KPT1 141615Z 10003KT M03/M05 A3036 RMK A01 T10341051  RH  088%=      5-min Rain = 0
KPT1 141620Z 08004KT M03/M05 A3036 RMK A01 T10321050  RH  088%=      5-min Rain = 0
KPT1 141625Z 07003KT M03/M05 A3036 RMK A01 T10301049  RH  087%=      5-min Rain = 0
KPT1 141630Z 08003KT M03/M05 A3036 RMK A01 T10281047  RH  087%=      5-min Rain = 0
KPT1 141635Z 08003KT M03/M05 A3036 RMK A01 T10281047  RH  087%=      5-min Rain = 0
KPT1 141640Z 09003KT M03/M05 A3036 RMK A01 T10271047  RH  086%=      5-min Rain = 0
KPT1 141645Z 11004KT M02/M04 A3036 RMK A01 T10241043  RH  087%=      5-min Rain = 0
KPT1 141650Z 11004KT M02/M04 A3036 RMK A01 T10241042  RH  088%=      5-min Rain = 0
KPT1 141655Z 11003KT M02/M04 A3036 RMK A01 T10221041  RH  087%=      5-min Rain = 0
KPT1 141700Z 13003KT M02/M04 A3036 RMK A01 T10221042  RH  087%=      5-min Rain = 0
KPT1 141705Z 13004KT M02/M04 A3035 RMK A01 T10201040  RH  087%=      5-min Rain = 0
KPT1 141710Z 12005KT M02/M04 A3035 RMK A01 T10171037  RH  087%=      5-min Rain = 0
KPT1 141715Z 12004KT M02/M04 A3035 RMK A01 T10181038  RH  087%=      5-min Rain = 0
KPT1 141720Z 14005KT M02/M04 A3035 RMK A01 T10171037  RH  087%=      5-min Rain = 0
KPT1 141725Z 16004KT M02/M04 A3035 RMK A01 T10171039  RH  086%=      5-min Rain = 0
KPT1 141730Z 13004KT M01/M04 A3034 RMK A01 T10141036  RH  085%=      5-min Rain = 0
KPT1 141735Z 14004KT M01/M04 A3034 RMK A01 T10131036  RH  085%=      5-min Rain = 0
KPT1 141740Z 13004KT M01/M03 A3034 RMK A01 T10101034  RH  084%=      5-min Rain = 0
KPT1 141745Z 11004KT M01/M03 A3034 RMK A01 T10081033  RH  083%=      5-min Rain = 0
KPT1 141750Z 12005KT M01/M04 A3033 RMK A01 T10111036  RH  083%=      5-min Rain = 0
KPT1 141755Z 17004KT M01/M03 A3033 RMK A01 T10081034  RH  083%=      5-min Rain = 0
KPT1 141800Z 13004KT M01/M03 A3033 RMK A01 T10061033  RH  082%=      5-min Rain = 0
KPT1 141805Z 14003KT M01/M03 A3033 RMK A01 T10051032  RH  082%=      5-min Rain = 0
KPT1 141810Z 15005KT 00/03 A3033 RMK A01 T00000-28  RH  082%=      5-min Rain = 0
KPT1 141815Z 16005KT 00/03 A3033 RMK A01 T00000-28  RH  081%=      5-min Rain = 0
KPT1 141820Z 15005KT 00/M03 A3033 RMK A01 T00021027  RH  081%=      5-min Rain = 0
KPT1 141825Z 14006KT 00/M03 A3033 RMK A01 T00021028  RH  081%=      5-min Rain = 0
KPT1 141830Z 14006KT 01/M03 A3032 RMK A01 T00051026  RH  080%=      5-min Rain = 0
KPT1 141835Z 15006KT 01/M03 A3032 RMK A01 T00051026  RH  080%=      5-min Rain = 0
KPT1 141840Z 16006KT 01/M03 A3032 RMK A01 T00061025  RH  080%=      5-min Rain = 0
KPT1 141845Z 16006KT 01/M03 A3032 RMK A01 T00071025  RH  080%=      5-min Rain = 0
KPT1 141850Z 16006KT 01/M02 A3032 RMK A01 T00071024  RH  080%=      5-min Rain = 0
KPT1 141855Z 17007KT 01/M02 A3031 RMK A01 T00091023  RH  080%=      5-min Rain = 0
KPT1 141900Z 16005KT 01/M02 A3031 RMK A01 T00091023  RH  080%=      5-min Rain = 0
KPT1 141905Z 16006KT 01/M02 A3031 RMK A01 T00111021  RH  080%=      5-min Rain = 0
KPT1 141910Z 16007KT 01/M02 A303 RMK A01 T00111020  RH  080%=      5-min Rain = 0
KPT1 141915Z 15007KT 01/M02 A303 RMK A01 T00131019  RH  080%=      5-min Rain = 0
KPT1 141920Z 15005KT 02/M02 A3029 RMK A01 T00151018  RH  079%=      5-min Rain = 0
KPT1 141925Z 16005KT 02/M02 A3029 RMK A01 T00151018  RH  079%=      5-min Rain = 0
KPT1 141930Z 19005KT 02/M02 A3029 RMK A01 T00171017  RH  079%=      5-min Rain = 0
KPT1 141935Z 19007KT 02/M02 A3029 RMK A01 T00171015  RH  080%=      5-min Rain = 0
KPT1 141940Z 18008KT 02/M01 A3028 RMK A01 T00191011  RH  081%=      5-min Rain = 0
KPT1 141945Z 18008KT 02/M01 A3028 RMK A01 T00221009  RH  081%=      5-min Rain = 0
KPT1 141950Z 19008G13KT 02/M01 A3028 RMK A01 T00211010  RH  081%=      5-min Rain = 0
KPT1 141955Z 19008KT 02/M01 A3027 RMK A01 T00211009  RH  082%=      5-min Rain = 0
KPT1 142000Z 19009KT 02/M01 A3027 RMK A01 T00221009  RH  081%=      5-min Rain = 0
KPT1 142005Z 18008KT 02/M01 A3027 RMK A01 T00201010  RH  081%=      5-min Rain = 0
KPT1 142010Z 19006KT 02/M01 A3026 RMK A01 T00211008  RH  082%=      5-min Rain = 0
KPT1 142015Z 18009KT 02/M01 A3026 RMK A01 T00211009  RH  081%=      5-min Rain = 0
KPT1 142020Z 18008KT 02/M01 A3026 RMK A01 T00211008  RH  082%=      5-min Rain = 0
KPT1 142025Z 20007KT 02/M01 A3026 RMK A01 T00221008  RH  082%=      5-min Rain = 0
KPT1 142030Z 20008KT 02/M01 A3026 RMK A01 T00221008  RH  082%=      5-min Rain = 0
KPT1 142035Z 17008KT 02/M01 A3025 RMK A01 T00221007  RH  082%=      5-min Rain = 0
KPT1 142040Z 18008KT 02/M01 A3025 RMK A01 T00221006  RH  082%=      5-min Rain = 0
KPT1 142045Z 18008KT 02/M01 A3025 RMK A01 T00231006  RH  082%=      5-min Rain = 0
KPT1 142050Z 18007KT 02/M01 A3025 RMK A01 T00231005  RH  083%=      5-min Rain = 0
KPT1 142055Z 19006KT 02/M00 A3025 RMK A01 T00241004  RH  082%=      5-min Rain = 0
KPT1 142100Z 18008KT 03/M00 A3025 RMK A01 T00251004  RH  082%=      5-min Rain = 0
KPT1 142105Z 20008G13KT 03/M00 A3025 RMK A01 T00251004  RH  082%=      5-min Rain = 0
KPT1 142110Z 19008KT 02/M01 A3025 RMK A01 T00241005  RH  082%=      5-min Rain = 0
KPT1 142115Z 18009KT 03/M00 A3024 RMK A01 T00251003  RH  082%=      5-min Rain = 0
KPT1 142120Z 18008KT 03/M00 A3024 RMK A01 T00251003  RH  083%=      5-min Rain = 0
KPT1 142125Z 18009KT 03/M00 A3024 RMK A01 T00261003  RH  082%=      5-min Rain = 0
KPT1 142130Z 19007KT 03/M00 A3023 RMK A01 T00261002  RH  083%=      5-min Rain = 0
KPT1 142135Z 17009KT 03/M00 A3023 RMK A01 T00281001  RH  082%=      5-min Rain = 0
KPT1 142140Z 18009G14KT 03/M00 A3023 RMK A01 T00261002  RH  083%=      5-min Rain = 0
KPT1 142145Z 19009KT 03/00 A3023 RMK A01 T002700-0  RH  083%=      5-min Rain = 0
KPT1 142150Z 19009KT 03/00 A3023 RMK A01 T00280000  RH  083%=      5-min Rain = 0
KPT1 142155Z 18010KT 03/00 A3022 RMK A01 T00290000  RH  082%=      5-min Rain = 0
KPT1 142200Z 19008KT 03/00 A3022 RMK A01 T00310002  RH  082%=      5-min Rain = 0
KPT1 142205Z 20009KT 03/00 A3022 RMK A01 T00330003  RH  081%=      5-min Rain = 0
KPT1 142210Z 19008KT 04/01 A3021 RMK A01 T00390005  RH  079%=      5-min Rain = 0
KPT1 142215Z 19009KT 04/00 A3021 RMK A01 T00400003  RH  078%=      5-min Rain = 0
KPT1 142220Z 19007KT 04/00 A3021 RMK A01 T00410003  RH  078%=      5-min Rain = 0
KPT1 142225Z 19007KT 04/01 A3021 RMK A01 T00410005  RH  078%=      5-min Rain = 0
KPT1 142230Z 20007KT 05/01 A3021 RMK A01 T00460007  RH  076%=      5-min Rain = 0
KPT1 142235Z 20006KT 05/01 A3021 RMK A01 T00540009  RH  073%=      5-min Rain = 0
KPT1 142240Z 19008KT 05/01 A302 RMK A01 T00520007  RH  073%=      5-min Rain = 0
KPT1 142245Z 19007KT 05/01 A302 RMK A01 T00500007  RH  075%=      5-min Rain = 0
KPT1 142250Z 18005KT 06/01 A302 RMK A01 T00550009  RH  073%=      5-min Rain = 0
KPT1 142255Z 18005KT 06/01 A302 RMK A01 T00560008  RH  072%=      5-min Rain = 0
KPT1 142300Z 17006KT 06/01 A3019 RMK A01 T00560008  RH  072%=      5-min Rain = 0
KPT1 142305Z 17006KT 06/01 A3019 RMK A01 T00560009  RH  073%=      5-min Rain = 0
KPT1 142310Z 19006KT 06/01 A3019 RMK A01 T00560009  RH  072%=      5-min Rain = 0
KPT1 142315Z 18005KT 06/01 A3019 RMK A01 T00560009  RH  073%=      5-min Rain = 0
KPT1 142320Z 18005KT 06/01 A3019 RMK A01 T00610011  RH  071%=      5-min Rain = 0
KPT1 142325Z 18006KT 06/01 A3018 RMK A01 T00570010  RH  073%=      5-min Rain = 0
KPT1 142330Z 18005KT 06/01 A3019 RMK A01 T00570011  RH  073%=      5-min Rain = 0
KPT1 142335Z 17005KT 06/01 A3019 RMK A01 T00600012  RH  072%=      5-min Rain = 0
KPT1 142340Z 17004KT 06/01 A3019 RMK A01 T00610012  RH  072%=      5-min Rain = 0
KPT1 142345Z 17004KT 06/01 A3018 RMK A01 T00600012  RH  072%=      5-min Rain = 0
KPT1 142350Z 18004KT 06/01 A3018 RMK A01 T00580012  RH  073%=      5-min Rain = 0
KPT1 142355Z 18006KT 06/01 A3018 RMK A01 T00570012  RH  074%=      5-min Rain = 0
KPT1 150000Z 18006KT 06/01 A3018 RMK A01 T00570013  RH  074%=      5-min Rain = 0
KPT1 150005Z 17005KT 06/01 A3018 RMK A01 T00570013  RH  074%=      5-min Rain = 0
KPT1 150010Z 18004KT 06/01 A3018 RMK A01 T00570013  RH  075%=      5-min Rain = 0
KPT1 150015Z 18004KT 06/01 A3018 RMK A01 T00550013  RH  076%=      5-min Rain = 0
KPT1 150020Z 17004KT 05/01 A3018 RMK A01 T00520013  RH  077%=      5-min Rain = 0
KPT1 150025Z 18004KT 05/01 A3018 RMK A01 T00480012  RH  079%=      5-min Rain = 0
KPT1 150030Z 18003KT 05/01 A3017 RMK A01 T00470012  RH  080%=      5-min Rain = 0
KPT1 150035Z 12002KT 05/01 A3018 RMK A01 T00450013  RH  081%=      5-min Rain = 0
KPT1 150040Z 08003KT 04/01 A3018 RMK A01 T00420011  RH  082%=      5-min Rain = 0
KPT1 150045Z 07002KT 04/01 A3018 RMK A01 T00390010  RH  083%=      5-min Rain = 0
KPT1 150050Z 06001KT 04/01 A3018 RMK A01 T00410012  RH  082%=      5-min Rain = 0
KPT1 150055Z 06001KT 04/01 A3018 RMK A01 T00420012  RH  082%=      5-min Rain = 0
KPT1 150100Z 07002KT 04/01 A3017 RMK A01 T00410011  RH  082%=      5-min Rain = 0
KPT1 150105Z 07001KT 04/01 A3017 RMK A01 T00410010  RH  082%=      5-min Rain = 0
KPT1 150110Z 08002KT 04/01 A3017 RMK A01 T00400010  RH  082%=      5-min Rain = 0
KPT1 150115Z 09002KT 04/01 A3017 RMK A01 T00390009  RH  082%=      5-min Rain = 0
KPT1 150120Z 11002KT 04/01 A3017 RMK A01 T00360008  RH  083%=      5-min Rain = 0
KPT1 150125Z 13002KT 03/01 A3017 RMK A01 T00320009  RH  086%=      5-min Rain = 0
KPT1 150130Z 13002KT 03/01 A3017 RMK A01 T00330010  RH  086%=      5-min Rain = 0
KPT1 150135Z 12002KT 03/01 A3017 RMK A01 T00330010  RH  086%=      5-min Rain = 0
KPT1 150140Z 14001KT 03/01 A3017 RMK A01 T00340010  RH  086%=      5-min Rain = 0
KPT1 150145Z 14001KT 04/01 A3017 RMK A01 T00350010  RH  085%=      5-min Rain = 0
KPT1 150150Z 11002KT 04/01 A3017 RMK A01 T00350010  RH  085%=      5-min Rain = 0
KPT1 150155Z 11001KT 04/01 A3017 RMK A01 T00350011  RH  085%=      5-min Rain = 0
KPT1 150200Z 11002KT 04/01 A3017 RMK A01 T00360011  RH  085%=      5-min Rain = 0
KPT1 150205Z 13002KT 03/01 A3016 RMK A01 T00340010  RH  085%=      5-min Rain = 0
KPT1 150210Z 14002KT 03/01 A3016 RMK A01 T00300009  RH  087%=      5-min Rain = 0
KPT1 150215Z 14002KT 03/01 A3016 RMK A01 T00290009  RH  088%=      5-min Rain = 0
KPT1 150220Z 15002KT 03/01 A3016 RMK A01 T00280009  RH  088%=      5-min Rain = 0
KPT1 150225Z 16002KT 03/01 A3016 RMK A01 T00280010  RH  089%=      5-min Rain = 0
KPT1 150230Z 16002KT 03/01 A3016 RMK A01 T00280010  RH  089%=      5-min Rain = 0
KPT1 150235Z 17002KT 03/01 A3016 RMK A01 T00260009  RH  090%=      5-min Rain = 0
KPT1 150240Z 20002KT 02/01 A3017 RMK A01 T00240008  RH  090%=      5-min Rain = 0
KPT1 150245Z 22001KT 02/01 A3017 RMK A01 T00200005  RH  091%=      5-min Rain = 0
KPT1 150250Z 23002KT 02/00 A3017 RMK A01 T00170004  RH  092%=      5-min Rain = 0
KPT1 150255Z 19002KT 02/01 A3017 RMK A01 T00170005  RH  093%=      5-min Rain = 0
KPT1 150300Z 18002KT 02/01 A3017 RMK A01 T00160005  RH  093%=      5-min Rain = 0
KPT1 150305Z 17002KT 02/01 A3017 RMK A01 T00220010  RH  093%=      5-min Rain = 0
KPT1 150310Z 17003KT 02/01 A3017 RMK A01 T00200006  RH  091%=      5-min Rain = 0
KPT1 150315Z 17004KT 02/00 A3017 RMK A01 T00160004  RH  093%=      5-min Rain = 0
KPT1 150320Z 17004KT 02/01 A3017 RMK A01 T00190008  RH  094%=      5-min Rain = 0
KPT1 150325Z 19004KT 02/01 A3017 RMK A01 T00200008  RH  093%=      5-min Rain = 0
KPT1 150330Z 19004KT 02/01 A3017 RMK A01 T00210009  RH  093%=      5-min Rain = 0
KPT1 150335Z 20004KT 02/01 A3017 RMK A01 T00240010  RH  092%=      5-min Rain = 0
KPT1 150340Z 22004KT 03/01 A3017 RMK A01 T00250010  RH  092%=      5-min Rain = 0
KPT1 150345Z 22003KT 02/01 A3017 RMK A01 T00240009  RH  091%=      5-min Rain = 0
KPT1 150350Z 21003KT 02/01 A3017 RMK A01 T00240010  RH  092%=      5-min Rain = 0
KPT1 150355Z 18004KT 03/01 A3017 RMK A01 T00250011  RH  091%=      5-min Rain = 0
KPT1 150400Z 18004KT 02/01 A3017 RMK A01 T00230009  RH  092%=      5-min Rain = 0
KPT1 150405Z 17004KT 02/01 A3016 RMK A01 T00230010  RH  092%=      5-min Rain = 0
KPT1 150410Z 17004KT 03/01 A3017 RMK A01 T00260011  RH  091%=      5-min Rain = 0
KPT1 150415Z 18004KT 03/01 A3017 RMK A01 T00270012  RH  091%=      5-min Rain = 0
KPT1 150420Z 19003KT 03/01 A3017 RMK A01 T00270011  RH  090%=      5-min Rain = 0
KPT1 150425Z 19003KT 03/01 A3016 RMK A01 T00260010  RH  091%=      5-min Rain = 0
KPT1 150430Z 20003KT 03/01 A3016 RMK A01 T00260011  RH  091%=      5-min Rain = 0
KPT1 150435Z 20003KT 02/01 A3016 RMK A01 T00210005  RH  090%=      5-min Rain = 0
KPT1 150440Z 20004KT 02/01 A3016 RMK A01 T00210009  RH  093%=      5-min Rain = 0
KPT1 150445Z 21004KT 03/01 A3016 RMK A01 T00250013  RH  093%=      5-min Rain = 0
KPT1 150450Z 21005KT 03/02 A3016 RMK A01 T00310015  RH  091%=      5-min Rain = 0
KPT1 150455Z 20005KT 03/01 A3015 RMK A01 T00310013  RH  089%=      5-min Rain = 0
KPT1 150500Z 19005KT 03/01 A3015 RMK A01 T00310014  RH  089%=      5-min Rain = 0
KPT1 150505Z 19005KT 03/02 A3015 RMK A01 T00320015  RH  090%=      5-min Rain = 0
KPT1 150510Z 20005KT 04/02 A3015 RMK A01 T00350018  RH  090%=      5-min Rain = 0
KPT1 150515Z 20005KT 04/02 A3015 RMK A01 T00370020  RH  090%=      5-min Rain = 0
KPT1 150520Z 20007KT 04/02 A3015 RMK A01 T00410023  RH  090%=      5-min Rain = 0
KPT1 150525Z 20008KT 05/03 A3015 RMK A01 T00490029  RH  088%=      5-min Rain = 0
KPT1 150530Z 20009KT 06/03 A3014 RMK A01 T00570032  RH  085%=      5-min Rain = 0
KPT1 150535Z 19009G14KT 06/03 A3014 RMK A01 T00590032  RH  084%=      5-min Rain = 0
KPT1 150540Z 19009KT 06/03 A3014 RMK A01 T00600032  RH  084%=      5-min Rain = 0
KPT1 150545Z 19010KT 06/03 A3014 RMK A01 T00620033  RH  083%=      5-min Rain = 0
KPT1 150550Z 19010KT 06/03 A3014 RMK A01 T00640033  RH  082%=      5-min Rain = 0
KPT1 150555Z 20009KT 06/03 A3014 RMK A01 T00640033  RH  082%=      5-min Rain = 0

Page generated in 0.0091 seconds.